createdAt,value
2023-01-19T00:00:57.445Z,97150.84
2023-01-19T00:04:00.282Z,97156.56
2023-01-19T00:07:05.256Z,97160.22
2023-01-19T00:10:09.481Z,97161.91
2023-01-19T00:13:12.345Z,97168.88
2023-01-19T00:16:17.589Z,97163.47
2023-01-19T00:19:20.493Z,97172.31
2023-01-19T00:22:24.618Z,97171.81
2023-01-19T00:25:27.394Z,97174.31
2023-01-19T00:28:30.205Z,97173.84
2023-01-19T00:31:34.096Z,97171.53
2023-01-19T00:34:39.542Z,97170.97
2023-01-19T00:37:46.030Z,97177.47
2023-01-19T00:40:49.243Z,97178.16
2023-01-19T00:43:52.054Z,97173.31
2023-01-19T00:46:54.914Z,97167.03
2023-01-19T00:50:00.117Z,97174.34
2023-01-19T00:53:05.567Z,97175.94
2023-01-19T00:56:10.449Z,97166.81
2023-01-19T00:59:13.492Z,97178.66
2023-01-19T01:02:16.757Z,97164.22
2023-01-19T01:05:21.014Z,97178.53
2023-01-19T01:08:25.930Z,97172.09
2023-01-19T01:11:28.670Z,97173.56
2023-01-19T01:14:31.580Z,97174.69
2023-01-19T01:17:34.508Z,97177.75
2023-01-19T01:20:37.430Z,97175.00
2023-01-19T01:23:41.878Z,97173.03
2023-01-19T01:26:44.763Z,97173.63
2023-01-19T01:29:47.630Z,97180.75
2023-01-19T01:32:50.774Z,97195.13
2023-01-19T01:35:54.129Z,97186.88
2023-01-19T01:38:58.528Z,97189.13
2023-01-19T01:42:01.466Z,97192.22
2023-01-19T01:45:09.052Z,97192.88
2023-01-19T01:48:17.519Z,97193.91
2023-01-19T01:51:25.075Z,97194.44
2023-01-19T01:54:32.157Z,97200.22
2023-01-19T01:57:37.927Z,97193.34
2023-01-19T02:00:59.378Z,97197.97
2023-01-19T02:04:02.391Z,97192.72
2023-01-19T02:07:22.681Z,97192.59
2023-01-19T02:10:44.505Z,97196.97
2023-01-19T02:13:48.027Z,97194.91
2023-01-19T02:16:50.877Z,97184.69
2023-01-19T02:19:55.957Z,97182.78
2023-01-19T02:23:04.146Z,97178.22
2023-01-19T02:26:11.125Z,97179.59
2023-01-19T02:29:17.342Z,97175.50
2023-01-19T02:32:20.205Z,97176.91
2023-01-19T02:35:24.321Z,97182.06
2023-01-19T02:38:29.267Z,97181.03
2023-01-19T02:41:39.859Z,97183.44
2023-01-19T02:44:48.251Z,97185.03
2023-01-19T02:47:53.203Z,97194.09
2023-01-19T02:51:04.426Z,97190.09
2023-01-19T02:54:18.556Z,97191.34
2023-01-19T02:57:43.696Z,97193.81
2023-01-19T03:00:55.234Z,97198.88
2023-01-19T03:04:07.758Z,97195.44
2023-01-19T03:07:15.509Z,97190.06
2023-01-19T03:10:25.219Z,97201.88
2023-01-19T03:13:35.577Z,97198.19
2023-01-19T03:16:43.344Z,97196.75
2023-01-19T03:19:50.482Z,97195.22
2023-01-19T03:23:00.559Z,97198.00
2023-01-19T03:26:07.350Z,97196.53
2023-01-19T03:29:13.426Z,97192.22
2023-01-19T03:32:19.085Z,97198.13
2023-01-19T03:35:25.742Z,97200.03
2023-01-19T03:38:29.792Z,97209.41
2023-01-19T03:41:35.227Z,97206.78
2023-01-19T03:44:41.994Z,97212.97
2023-01-19T03:47:45.499Z,97213.34
2023-01-19T03:50:48.675Z,97212.59
2023-01-19T03:53:53.649Z,97213.88
2023-01-19T03:56:59.059Z,97216.94
2023-01-19T04:00:03.200Z,97223.59
2023-01-19T04:03:06.524Z,97210.03
2023-01-19T04:06:09.884Z,97214.16
2023-01-19T04:09:12.774Z,97225.09
2023-01-19T04:12:16.184Z,97221.72
2023-01-19T04:15:20.533Z,97224.56
2023-01-19T04:18:23.279Z,97230.59
2023-01-19T04:21:26.022Z,97229.22
2023-01-19T04:24:28.839Z,97232.22
2023-01-19T04:27:31.522Z,97239.50
2023-01-19T04:30:35.618Z,97228.19
2023-01-19T04:33:38.337Z,97233.22
2023-01-19T04:36:41.180Z,97238.31
2023-01-19T04:39:44.092Z,97239.53
2023-01-19T04:42:47.246Z,97235.94
2023-01-19T04:45:51.882Z,97242.84
2023-01-19T04:48:54.705Z,97243.00
2023-01-19T04:51:57.445Z,97240.19
2023-01-19T04:55:00.325Z,97250.28
2023-01-19T04:58:02.986Z,97254.34
2023-01-19T05:01:10.145Z,97246.94
2023-01-19T05:04:12.917Z,97245.97
2023-01-19T05:07:15.650Z,97242.94
2023-01-19T05:10:18.740Z,97243.94
2023-01-19T05:13:21.577Z,97244.31
2023-01-19T05:16:25.897Z,97247.94
2023-01-19T05:19:28.790Z,97240.22
2023-01-19T05:22:31.622Z,97246.28
2023-01-19T05:25:34.398Z,97250.47
2023-01-19T05:28:38.034Z,97252.03
2023-01-19T05:31:42.524Z,97255.06
2023-01-19T05:34:45.804Z,97255.59
2023-01-19T05:37:48.477Z,97256.22
2023-01-19T05:40:51.346Z,97254.88
2023-01-19T05:43:54.467Z,97253.25
2023-01-19T05:46:58.575Z,97259.25
2023-01-19T05:50:01.422Z,97267.50
2023-01-19T05:53:04.403Z,97266.31
2023-01-19T05:56:09.326Z,97270.97
2023-01-19T05:59:12.802Z,97276.38
2023-01-19T06:02:17.036Z,97280.47
2023-01-19T06:05:19.921Z,97277.25
2023-01-19T06:08:22.597Z,97277.13
2023-01-19T06:11:26.134Z,97276.41
2023-01-19T06:14:28.987Z,97282.16
2023-01-19T06:17:34.529Z,97280.97
2023-01-19T06:20:38.067Z,97290.19
2023-01-19T06:23:41.057Z,97290.84
2023-01-19T06:26:44.322Z,97288.94
2023-01-19T06:29:47.651Z,97281.97
2023-01-19T06:32:51.993Z,97288.47
2023-01-19T06:35:55.670Z,97300.31
2023-01-19T06:38:58.918Z,97303.44
2023-01-19T06:42:02.156Z,97311.72
2023-01-19T06:45:10.692Z,97313.75
2023-01-19T06:48:20.017Z,97309.28
2023-01-19T06:51:24.120Z,97313.09
2023-01-19T06:54:27.244Z,97307.81
2023-01-19T06:57:30.014Z,97306.06
2023-01-19T07:00:32.876Z,97303.59
2023-01-19T07:03:38.575Z,97311.25
2023-01-19T07:06:41.597Z,97307.91
2023-01-19T07:09:44.332Z,97314.06
2023-01-19T07:12:47.462Z,97315.28
2023-01-19T07:15:50.416Z,97304.66
2023-01-19T07:18:54.512Z,97310.09
2023-01-19T07:21:57.885Z,97317.69
2023-01-19T07:25:01.713Z,97319.53
2023-01-19T07:28:04.719Z,97313.13
2023-01-19T07:31:07.656Z,97311.19
2023-01-19T07:34:12.633Z,97307.47
2023-01-19T07:37:15.538Z,97303.13
2023-01-19T07:40:18.723Z,97310.03
2023-01-19T07:43:21.410Z,97320.09
2023-01-19T07:46:24.748Z,97313.66
2023-01-19T07:49:29.809Z,97309.44
2023-01-19T07:52:32.563Z,97323.59
2023-01-19T07:55:35.727Z,97328.50
2023-01-19T07:58:38.614Z,97330.06
2023-01-19T08:01:41.769Z,97336.28
2023-01-19T08:04:48.821Z,97330.19
2023-01-19T08:07:54.066Z,97335.34
2023-01-19T08:10:57.079Z,97338.03
2023-01-19T08:14:00.252Z,97342.19
2023-01-19T08:17:04.138Z,97346.34
2023-01-19T08:20:11.464Z,97350.72
2023-01-19T08:23:14.447Z,97358.31
2023-01-19T08:26:21.268Z,97351.38
2023-01-19T08:29:24.187Z,97351.13
2023-01-19T08:32:27.355Z,97359.38
2023-01-19T08:35:31.586Z,97362.38
2023-01-19T08:38:34.381Z,97345.84
2023-01-19T08:41:37.531Z,97357.44
2023-01-19T08:44:49.752Z,97362.03
2023-01-19T08:48:00.074Z,97371.78
2023-01-19T08:51:04.566Z,97364.44
2023-01-19T08:54:07.429Z,97362.25
2023-01-19T08:57:10.171Z,97366.03
2023-01-19T09:00:14.335Z,97366.59
2023-01-19T09:03:17.159Z,97367.38
2023-01-19T09:06:21.455Z,97375.38
2023-01-19T09:09:24.180Z,97374.31
2023-01-19T09:12:27.331Z,97380.19
2023-01-19T09:15:30.155Z,97386.63
2023-01-19T09:18:32.910Z,97384.66
2023-01-19T09:21:37.700Z,97380.84
2023-01-19T09:24:40.715Z,97383.22
2023-01-19T09:27:43.816Z,97378.97
2023-01-19T09:30:46.647Z,97385.25
2023-01-19T09:33:49.443Z,97379.84
2023-01-19T09:36:53.819Z,97381.34
2023-01-19T09:39:56.715Z,97381.19
2023-01-19T09:43:12.604Z,97385.69
2023-01-19T09:46:20.280Z,97389.53
2023-01-19T09:49:32.736Z,97382.56
2023-01-19T09:52:42.408Z,97387.00
2023-01-19T09:55:45.681Z,97376.91
2023-01-19T09:58:49.794Z,97374.75
2023-01-19T10:02:24.817Z,97374.72
2023-01-19T10:05:32.761Z,97371.91
2023-01-19T10:08:44.099Z,97370.13
2023-01-19T10:11:53.456Z,97372.75
2023-01-19T10:15:04.077Z,97369.00
2023-01-19T10:18:17.836Z,97370.00
2023-01-19T10:21:24.759Z,97366.25
2023-01-19T10:24:34.183Z,97367.34
2023-01-19T10:27:38.908Z,97364.25
2023-01-19T10:30:43.828Z,97373.19
2023-01-19T10:33:47.123Z,97365.56
2023-01-19T10:36:52.528Z,97369.00
2023-01-19T10:39:59.228Z,97370.56
2023-01-19T10:43:02.579Z,97357.38
2023-01-19T10:46:17.542Z,97363.16
2023-01-19T10:49:28.518Z,97360.09
2023-01-19T10:52:34.336Z,97359.78
2023-01-19T10:55:40.932Z,97363.03
2023-01-19T10:58:44.003Z,97371.31
2023-01-19T11:02:04.347Z,97361.31
2023-01-19T11:05:24.219Z,97362.84
2023-01-19T11:08:30.998Z,97360.56
2023-01-19T11:11:43.755Z,97360.53
2023-01-19T11:14:47.915Z,97360.03
2023-01-19T11:17:53.583Z,97359.66
2023-01-19T11:20:59.089Z,97352.91
2023-01-19T11:24:05.395Z,97357.66
2023-01-19T11:27:10.004Z,97343.13
2023-01-19T11:30:20.483Z,97340.47
2023-01-19T11:33:28.258Z,97348.69
2023-01-19T11:36:32.846Z,97342.19
2023-01-19T11:39:47.766Z,97339.47
2023-01-19T11:42:52.201Z,97340.22
2023-01-19T11:45:56.010Z,97337.34
2023-01-19T11:49:03.906Z,97333.31
2023-01-19T11:52:14.692Z,97333.19
2023-01-19T11:55:23.642Z,97330.31
2023-01-19T11:58:28.276Z,97326.59
2023-01-19T12:01:34.191Z,97332.25
2023-01-19T12:04:41.470Z,97330.72
2023-01-19T12:07:46.938Z,97340.56
2023-01-19T12:10:52.052Z,97344.59
2023-01-19T12:13:56.180Z,97337.16
2023-01-19T12:17:03.532Z,97336.97
2023-01-19T12:20:15.226Z,97339.19
2023-01-19T12:23:30.350Z,97349.44
2023-01-19T12:26:38.192Z,97348.25
2023-01-19T12:29:43.995Z,97348.91
2023-01-19T12:32:47.086Z,97345.09
2023-01-19T12:35:59.559Z,97353.44
2023-01-19T12:39:04.243Z,97353.91
2023-01-19T12:42:14.580Z,97357.78
2023-01-19T12:45:25.696Z,97359.31
2023-01-19T12:48:31.607Z,97365.31
2023-01-19T12:51:34.687Z,97361.78
2023-01-19T12:54:37.807Z,97365.16
2023-01-19T12:57:47.681Z,97378.25
2023-01-19T13:01:16.885Z,97377.38
2023-01-19T13:04:33.569Z,97372.72
2023-01-19T13:08:09.315Z,97368.97
2023-01-19T13:11:18.259Z,97377.47
2023-01-19T13:14:36.655Z,97361.97
2023-01-19T13:17:50.950Z,97375.16
2023-01-19T13:20:59.723Z,97368.22
2023-01-19T13:24:04.527Z,97373.16
2023-01-19T13:27:13.457Z,97376.28
2023-01-19T13:30:21.513Z,97376.09
2023-01-19T13:33:28.213Z,97370.00
2023-01-19T13:36:34.112Z,97378.59
2023-01-19T13:39:39.222Z,97377.16
2023-01-19T13:42:43.832Z,97371.94
2023-01-19T13:45:51.740Z,97372.50
2023-01-19T13:49:00.620Z,97376.28
2023-01-19T13:52:16.852Z,97382.03
2023-01-19T13:55:20.596Z,97387.88
2023-01-19T13:58:24.381Z,97380.81
2023-01-19T14:01:29.488Z,97386.94
2023-01-19T14:04:37.440Z,97386.13
2023-01-19T14:07:40.775Z,97389.13
2023-01-19T14:10:45.909Z,97393.66
2023-01-19T14:13:49.051Z,97388.66
2023-01-19T14:16:51.789Z,97392.84
2023-01-19T14:19:58.088Z,97387.78
2023-01-19T14:23:00.821Z,97395.00
2023-01-19T14:26:03.615Z,97396.66
2023-01-19T14:29:15.312Z,97393.31
2023-01-19T14:32:20.481Z,97392.03
2023-01-19T14:35:26.315Z,97392.50
2023-01-19T14:38:29.320Z,97388.31
2023-01-19T14:41:38.942Z,97385.59
2023-01-19T14:44:42.185Z,97391.94
2023-01-19T14:47:47.474Z,97386.59
2023-01-19T14:51:03.502Z,97384.41
2023-01-19T14:54:06.751Z,97388.25
2023-01-19T14:57:13.591Z,97390.41
2023-01-19T15:00:19.753Z,97382.78
2023-01-19T15:03:26.845Z,97393.56
2023-01-19T15:06:41.284Z,97392.69
2023-01-19T15:09:44.173Z,97392.91
2023-01-19T15:12:47.477Z,97399.50
2023-01-19T15:15:51.255Z,97394.22
2023-01-19T15:18:54.211Z,97395.97
2023-01-19T15:21:58.292Z,97390.69
2023-01-19T15:25:01.027Z,97385.88
2023-01-19T15:28:04.196Z,97389.31
2023-01-19T15:31:07.373Z,97394.22
2023-01-19T15:34:12.961Z,97391.09
2023-01-19T15:37:17.591Z,97392.28
2023-01-19T15:40:23.258Z,97381.31
2023-01-19T15:43:26.014Z,97385.81
2023-01-19T15:46:28.754Z,97383.72
2023-01-19T15:49:31.967Z,97389.00
2023-01-19T15:52:36.105Z,97392.13
2023-01-19T15:55:38.925Z,97383.41
2023-01-19T15:58:41.888Z,97382.91
2023-01-19T16:01:44.925Z,97377.00
2023-01-19T16:04:49.606Z,97373.13
2023-01-19T16:07:53.726Z,97381.69
2023-01-19T16:10:56.580Z,97383.31
2023-01-19T16:13:59.725Z,97386.50
2023-01-19T16:17:02.539Z,97382.50
2023-01-19T16:20:05.948Z,97391.94
2023-01-19T16:23:14.867Z,97383.94
2023-01-19T16:26:27.559Z,97380.16
2023-01-19T16:29:30.868Z,97393.06
2023-01-19T16:32:35.151Z,97390.53
2023-01-19T16:35:37.906Z,97383.81
2023-01-19T16:38:42.077Z,97381.06
2023-01-19T16:41:46.112Z,97387.31
2023-01-19T16:44:48.995Z,97389.75
2023-01-19T16:47:52.303Z,97375.41
2023-01-19T16:51:00.317Z,97388.97
2023-01-19T16:54:04.999Z,97390.84
2023-01-19T16:57:07.872Z,97393.47
2023-01-19T17:00:12.308Z,97392.91
2023-01-19T17:03:15.327Z,97398.66
2023-01-19T17:06:20.585Z,97393.47
2023-01-19T17:09:24.894Z,97400.75
2023-01-19T17:12:27.734Z,97401.44
2023-01-19T17:15:31.732Z,97405.22
2023-01-19T17:18:36.207Z,97399.63
2023-01-19T17:21:39.067Z,97405.72
2023-01-19T17:24:43.762Z,97406.84
2023-01-19T17:27:46.560Z,97405.56
2023-01-19T17:30:51.308Z,97408.38
2023-01-19T17:33:54.280Z,97407.31
2023-01-19T17:37:02.862Z,97405.38
2023-01-19T17:40:09.678Z,97409.28
2023-01-19T17:43:12.586Z,97403.53
2023-01-19T17:46:15.497Z,97402.72
2023-01-19T17:49:18.384Z,97407.31
2023-01-19T17:52:23.647Z,97403.78
2023-01-19T17:55:27.944Z,97413.75
2023-01-19T17:58:31.384Z,97410.63
2023-01-19T18:01:37.838Z,97411.00
2023-01-19T18:04:40.940Z,97409.53
2023-01-19T18:07:45.566Z,97408.22
2023-01-19T18:10:55.525Z,97408.13
2023-01-19T18:13:58.448Z,97413.84
2023-01-19T18:17:01.219Z,97408.94
2023-01-19T18:20:04.652Z,97414.53
2023-01-19T18:23:07.595Z,97418.31
2023-01-19T18:26:14.232Z,97418.19
2023-01-19T18:29:19.291Z,97420.50
2023-01-19T18:32:22.283Z,97414.75
2023-01-19T18:35:25.253Z,97422.00
2023-01-19T18:38:28.338Z,97419.50
2023-01-19T18:41:34.264Z,97420.63
2023-01-19T18:44:38.339Z,97417.31
2023-01-19T18:47:43.913Z,97414.91
2023-01-19T18:50:46.820Z,97421.19
2023-01-19T18:53:49.779Z,97417.19
2023-01-19T18:56:54.981Z,97413.75
2023-01-19T18:59:58.511Z,97412.16
2023-01-19T19:03:01.918Z,97412.38
2023-01-19T19:06:05.185Z,97417.63
2023-01-19T19:09:08.677Z,97405.94
2023-01-19T19:12:16.069Z,97403.53
2023-01-19T19:15:19.449Z,97400.47
2023-01-19T19:18:22.740Z,97405.38
2023-01-19T19:21:26.272Z,97399.75
2023-01-19T19:24:29.252Z,97405.94
2023-01-19T19:27:33.924Z,97409.03
2023-01-19T19:30:39.089Z,97409.38
2023-01-19T19:33:42.406Z,97413.16
2023-01-19T19:36:45.500Z,97423.28
2023-01-19T19:39:49.176Z,97419.59
2023-01-19T19:42:53.545Z,97430.38
2023-01-19T19:46:00.477Z,97421.22
2023-01-19T19:49:03.352Z,97430.47
2023-01-19T19:52:06.365Z,97424.53
2023-01-19T19:55:10.936Z,97431.19
2023-01-19T19:58:15.062Z,97428.53
2023-01-19T20:01:19.985Z,97430.59
2023-01-19T20:04:25.385Z,97430.03
2023-01-19T20:07:28.332Z,97430.25
2023-01-19T20:10:32.064Z,97433.13
2023-01-19T20:13:40.021Z,97438.16
2023-01-19T20:16:43.292Z,97435.91
2023-01-19T20:19:47.562Z,97438.31
2023-01-19T20:22:50.496Z,97438.97
2023-01-19T20:25:53.693Z,97430.47
2023-01-19T20:29:02.534Z,97431.97
2023-01-19T20:32:05.599Z,97434.84
2023-01-19T20:35:08.590Z,97438.88
2023-01-19T20:38:11.711Z,97434.75
2023-01-19T20:41:15.360Z,97439.44
2023-01-19T20:44:22.066Z,97439.31
2023-01-19T20:47:25.884Z,97446.47
2023-01-19T20:50:28.756Z,97449.66
2023-01-19T20:53:32.443Z,97448.38
2023-01-19T20:56:35.311Z,97458.38
2023-01-19T20:59:40.889Z,97457.00
2023-01-19T21:02:43.874Z,97460.91
2023-01-19T21:05:48.360Z,97464.69
2023-01-19T21:08:51.213Z,97464.13
2023-01-19T21:11:55.930Z,97474.00
2023-01-19T21:15:01.658Z,97465.84
2023-01-19T21:18:04.505Z,97465.50
2023-01-19T21:21:10.694Z,97472.03
2023-01-19T21:24:17.875Z,97487.28
2023-01-19T21:27:20.723Z,97487.19
2023-01-19T21:30:25.293Z,97485.81
2023-01-19T21:33:28.333Z,97481.09
2023-01-19T21:36:31.159Z,97483.75
2023-01-19T21:39:33.910Z,97476.84
2023-01-19T21:42:36.693Z,97477.56
2023-01-19T21:45:43.021Z,97488.53
2023-01-19T21:48:46.830Z,97479.94
2023-01-19T21:51:50.461Z,97483.81
2023-01-19T21:54:54.088Z,97494.13
2023-01-19T21:57:56.891Z,97490.25
2023-01-19T22:01:01.862Z,97492.66
2023-01-19T22:04:04.900Z,97500.91
2023-01-19T22:07:07.818Z,97498.63
2023-01-19T22:10:12.133Z,97511.34
2023-01-19T22:13:14.987Z,97512.25
2023-01-19T22:16:22.303Z,97512.16
2023-01-19T22:19:25.727Z,97514.28
2023-01-19T22:22:28.684Z,97509.00
2023-01-19T22:25:36.344Z,97515.75
2023-01-19T22:28:39.588Z,97520.56
2023-01-19T22:31:45.772Z,97516.31
2023-01-19T22:34:48.757Z,97523.41
2023-01-19T22:37:51.564Z,97518.81
2023-01-19T22:40:54.323Z,97521.91
2023-01-19T22:43:59.366Z,97521.31
2023-01-19T22:47:03.422Z,97515.03
2023-01-19T22:50:07.327Z,97519.00
2023-01-19T22:53:10.476Z,97524.94
2023-01-19T22:56:14.934Z,97524.94
2023-01-19T22:59:17.742Z,97523.13
2023-01-19T23:02:21.860Z,97532.19
2023-01-19T23:05:24.670Z,97528.28
2023-01-19T23:08:27.412Z,97523.16
2023-01-19T23:11:35.695Z,97525.56
2023-01-19T23:14:39.129Z,97526.03
2023-01-19T23:17:47.202Z,97530.53
2023-01-19T23:20:50.248Z,97534.19
2023-01-19T23:23:55.211Z,97533.53
2023-01-19T23:26:57.996Z,97533.63
2023-01-19T23:30:00.691Z,97531.59
2023-01-19T23:33:05.066Z,97534.50
2023-01-19T23:36:09.058Z,97532.09
2023-01-19T23:39:14.973Z,97535.06
2023-01-19T23:42:17.661Z,97539.41
2023-01-19T23:45:20.420Z,97543.78
2023-01-19T23:48:24.591Z,97540.56
2023-01-19T23:51:29.606Z,97539.09
2023-01-19T23:54:32.322Z,97542.75
2023-01-19T23:57:35.043Z,97543.91
